Lady Caroline — WDE6297 — position and weather

sailwx.info

Track history (hours):
 
Tides and Currents Weather Stations Pressure Air Temp Water Temp Dewpoint Dewpoint Depression Visibility Wind Speed Wind Dir Waves Ship Positions

Lady Caroline

Owner: Second Lady Caroline, LLC, Beverly Hills, CA. More information available from US FCC via Universal Licensing System.

Last reported at 2016-Jun-20 22:33 UTC. Time now 2016-Jun-26 01:06 UTC.
Position N 33°58' W 118°27'.

Length 33 m; draft 2.3 m.

Type: Pleasure craft. MMSI: 367378430.

Date/timePositionNaut miles runAvg speedWind from/ knotsBaromVisibWave heightAir tempDewpointWater temp
2016-Jun-20 22:33N 33°58' W 118°27'11 9.4
2016-Jun-20 21:24N 33°47' W 118°27'8 9.0
2016-Jun-20 20:34N 33°40' W 118°22'10 9.8
2016-Jun-20 19:34N 33°33' W 118°14'1010.0
2016-Jun-20 18:34N 33°26' W 118°06'1110.6
2016-Jun-20 17:33N 33°18' W 117°58'1010.1
2016-Jun-20 16:33N 33°10' W 117°50'1010.0
2016-Jun-20 15:33N 33°03' W 117°42'1010.0
2016-Jun-20 14:34N 32°55' W 117°34'10 9.8
2016-Jun-20 13:33N 32°48' W 117°26'10 9.5
2016-Jun-20 12:33N 32°41' W 117°18'5 4.9
2016-Jun-20 11:33N 32°43' W 117°13'1 1.1
2016-Jun-20 10:33N 32°44' W 117°12'0 0.0
2016-Jun-20 09:33N 32°44' W 117°12'0 0.0
2016-Jun-20 08:33N 32°44' W 117°12'0 0.0
2016-Jun-20 07:32N 32°44' W 117°12'0 0.0
2016-Jun-20 06:33N 32°44' W 117°12'0 0.0
2016-Jun-20 05:33N 32°44' W 117°12'0 0.0
2016-Jun-20 04:32N 32°44' W 117°12'0 0.0
2016-Jun-20 03:33N 32°44' W 117°12'0 0.0
2016-Jun-20 02:33N 32°44' W 117°12'0 0.0
2016-Jun-20 01:33N 32°44' W 117°12'0 0.0
2016-Jun-20 00:17N 32°44' W 117°12'0 0.0
2016-Jun-19 23:32N 32°44' W 117°12'0 0.0
2016-Jun-19 22:29N 32°44' W 117°12'0 0.0
2016-Jun-19 21:32N 32°44' W 117°12'0 0.0
2016-Jun-19 20:29N 32°44' W 117°12'0 0.0
2016-Jun-19 18:23N 32°44' W 117°12'0 0.0
2016-Jun-19 17:26N 32°44' W 117°12'0 0.0
2016-Jun-19 16:26N 32°44' W 117°12'0 0.0
2016-Jun-19 15:32N 32°44' W 117°12'0 0.0
2016-Jun-19 14:32N 32°44' W 117°12'0 0.0
2016-Jun-19 13:32N 32°44' W 117°12'0 0.0
2016-Jun-19 12:32N 32°44' W 117°12'0 0.0
2016-Jun-19 11:32N 32°44' W 117°12'0 0.0
2016-Jun-19 10:32N 32°44' W 117°12'0 0.0
2016-Jun-19 09:32N 32°44' W 117°12'0 0.0
2016-Jun-19 08:32N 32°44' W 117°12'0 0.0
2016-Jun-19 07:32N 32°44' W 117°12'0 0.0
2016-Jun-19 06:32N 32°44' W 117°12'0 0.0
2016-Jun-19 05:32N 32°44' W 117°12'0 0.0
2016-Jun-19 04:32N 32°44' W 117°12'0 0.0
2016-Jun-19 03:26N 32°44' W 117°12'0 0.0
2016-Jun-19 01:26N 32°44' W 117°12'0 0.0
2016-Jun-19 00:32N 32°44' W 117°12'0 0.0
2016-Jun-18 23:32N 32°44' W 117°12'0 0.0
2016-Jun-18 22:29N 32°44' W 117°12'0 0.0
2016-Jun-18 21:20N 32°44' W 117°12'0 0.0
2016-Jun-18 20:32N 32°44' W 117°12'0 0.0
2016-Jun-18 19:26N 32°44' W 117°12'0 0.0
2016-Jun-18 18:32N 32°44' W 117°12'0 0.0
2016-Jun-18 17:32N 32°44' W 117°12'0 0.0
2016-Jun-18 16:32N 32°44' W 117°12'0 0.0
2016-Jun-18 15:32N 32°44' W 117°12'0 0.0
2016-Jun-18 14:32N 32°44' W 117°12'0 0.0
2016-Jun-18 13:32N 32°44' W 117°12'0 0.0
2016-Jun-18 12:32N 32°44' W 117°12'0 0.0
2016-Jun-18 11:32N 32°44' W 117°12'0 0.0
2016-Jun-18 06:23N 32°44' W 117°12'0 0.0
2016-Jun-18 05:32N 32°44' W 117°12'0 0.0
2016-Jun-18 04:26N 32°44' W 117°12'0 0.0
2016-Jun-17 22:20N 32°44' W 117°12'0 0.0
2016-Jun-17 21:32N 32°44' W 117°12'0 0.0
2016-Jun-17 20:29N 32°44' W 117°12'0 0.0
2016-Jun-17 19:32N 32°44' W 117°12'0 0.0
2016-Jun-17 18:32N 32°44' W 117°12'0 0.0
2016-Jun-17 17:32N 32°44' W 117°12'0 0.0
2016-Jun-17 16:32N 32°44' W 117°12'0 0.0
2016-Jun-17 15:32N 32°44' W 117°12'0 0.0
2016-Jun-17 14:32N 32°44' W 117°12'0 0.0
2016-Jun-17 13:32N 32°44' W 117°12'0 0.0
2016-Jun-17 12:32N 32°44' W 117°12'0 0.0
2016-Jun-17 11:32N 32°44' W 117°12'0 0.0
2016-Jun-17 10:29N 32°44' W 117°12'0 0.0
2016-Jun-17 09:32N 32°44' W 117°12'0 0.0
2016-Jun-17 08:32N 32°44' W 117°12'0 0.0
2016-Jun-17 07:32N 32°44' W 117°12'0 0.0
2016-Jun-17 06:32N 32°44' W 117°12'0 0.0
2016-Jun-17 05:32N 32°44' W 117°12'0 0.0
2016-Jun-17 04:29N 32°44' W 117°12'0 0.0
2016-Jun-17 03:26N 32°44' W 117°12'0 0.0
2016-Jun-17 02:32N 32°44' W 117°12'0 0.0
2016-Jun-17 01:32N 32°44' W 117°12'0 0.0
2016-Jun-17 00:29N 32°44' W 117°12'0 0.0
2016-Jun-16 23:32N 32°44' W 117°12'0 0.0
2016-Jun-16 22:32N 32°44' W 117°12'0 0.0
2016-Jun-16 21:32N 32°44' W 117°12'0 0.0
2016-Jun-16 20:32N 32°44' W 117°12'0 0.0
2016-Jun-16 19:32N 32°44' W 117°12'0 0.0
2016-Jun-16 18:32N 32°44' W 117°12'0 0.0
2016-Jun-16 17:32N 32°44' W 117°12'0 0.0
2016-Jun-16 16:34N 32°44' W 117°12'0 0.0
2016-Jun-16 15:33N 32°44' W 117°12'0 0.0
2016-Jun-16 14:33N 32°44' W 117°12'0 0.0
2016-Jun-16 13:33N 32°44' W 117°12'0 0.0
2016-Jun-16 12:33N 32°44' W 117°12'0 0.0
2016-Jun-16 11:34N 32°44' W 117°12'0 0.0
2016-Jun-16 10:32N 32°44' W 117°12'0 0.0
2016-Jun-16 09:33N 32°44' W 117°12'0 0.0
2016-Jun-16 08:33N 32°44' W 117°12'0 0.0
2016-Jun-16 07:33N 32°44' W 117°12'0 0.0
2016-Jun-16 06:34N 32°44' W 117°12'0 0.0
2016-Jun-16 05:33N 32°44' W 117°12'0 0.0
2016-Jun-16 04:33N 32°44' W 117°12'0 0.0
2016-Jun-16 03:33N 32°44' W 117°12'0 0.0
2016-Jun-16 02:34N 32°44' W 117°12'0 0.0
2016-Jun-16 01:33N 32°44' W 117°12'0 0.0
2016-Jun-16 00:33N 32°44' W 117°12'0 0.0
2016-Jun-15 23:33N 32°44' W 117°12'0 0.0
2016-Jun-15 22:33N 32°44' W 117°12'0 0.0
2016-Jun-15 21:33N 32°44' W 117°12'0 0.0
2016-Jun-15 20:34N 32°44' W 117°12'0 0.0
2016-Jun-15 19:33N 32°44' W 117°12'0 0.0
2016-Jun-15 18:33N 32°44' W 117°12'0 0.0
2016-Jun-15 17:34N 32°44' W 117°12'0 0.0
2016-Jun-15 16:33N 32°44' W 117°12'0 0.0
2016-Jun-15 15:34N 32°44' W 117°12'0 0.0
2016-Jun-15 14:33N 32°44' W 117°12'0 0.0
2016-Jun-15 13:33N 32°44' W 117°12'0 0.0
2016-Jun-15 12:33N 32°44' W 117°12'0 0.0
2016-Jun-15 11:33N 32°44' W 117°12'0 0.0
2016-Jun-15 10:34N 32°44' W 117°12'0 0.0
2016-Jun-15 09:34N 32°44' W 117°12'0 0.0
2016-Jun-15 08:33N 32°44' W 117°12'0 0.0
2016-Jun-15 07:33N 32°44' W 117°12'0 0.0
2016-Jun-15 06:34N 32°44' W 117°12'0 0.0
2016-Jun-15 05:33N 32°44' W 117°12'0 0.0
2016-Jun-15 04:33N 32°44' W 117°12'0 0.0
2016-Jun-15 03:34N 32°44' W 117°12'0 0.0
2016-Jun-15 02:33N 32°44' W 117°12'0 0.0
2016-Jun-15 01:33N 32°44' W 117°12'0 0.0
2016-Jun-15 00:33N 32°44' W 117°12'0 0.0
2016-Jun-14 23:34N 32°44' W 117°12'0 0.1
2016-Jun-14 22:33N 32°44' W 117°12'6 5.8
2016-Jun-14 21:32N 32°39' W 117°16'1010.0
2016-Jun-14 20:33N 32°46' W 117°24'1010.1
2016-Jun-14 19:34N 32°54' W 117°32'1010.2
2016-Jun-14 18:34N 33°01' W 117°40'1010.2
2016-Jun-14 17:34N 33°09' W 117°48'1010.2
2016-Jun-14 16:33N 33°16' W 117°56'1010.1
2016-Jun-14 15:33N 33°24' W 118°04'2010.0
2016-Jun-14 13:31N 33°39' W 118°21'14 9.6
2016-Jun-14 12:04N 33°52' W 118°28'510.0
2016-Jun-14 11:33N 33°57' W 118°27'2 2.1
2016-Jun-14 10:33N 33°59' W 118°27'0 0.0
2016-Jun-14 09:32N 33°59' W 118°27'0 0.0
2016-Jun-14 08:32N 33°59' W 118°27'0 0.0
2016-Jun-14 07:33N 33°59' W 118°27'  
Track history (hours):
 
Tides and Currents Weather Stations Pressure Air Temp Water Temp Dewpoint Dewpoint Depression Visibility Wind Speed Wind Dir Waves Ship Positions

Lady Caroline

Owner: Second Lady Caroline, LLC, Beverly Hills, CA. More information available from US FCC via Universal Licensing System.

Last reported at 2016-Jun-20 22:33 UTC. Time now 2016-Jun-26 01:06 UTC.
Position N 33°58' W 118°27'.

Length 33 m; draft 2.3 m.

Type: Pleasure craft. MMSI: 367378430.

Date/timePositionNaut miles runAvg speedWind from/ knotsBaromVisibWave heightAir tempDewpointWater temp
2016-Jun-20 22:33N 33°58' W 118°27'11 9.4
2016-Jun-20 21:24N 33°47' W 118°27'8 9.0
2016-Jun-20 20:34N 33°40' W 118°22'10 9.8
2016-Jun-20 19:34N 33°33' W 118°14'1010.0
2016-Jun-20 18:34N 33°26' W 118°06'1110.6
2016-Jun-20 17:33N 33°18' W 117°58'1010.1
2016-Jun-20 16:33N 33°10' W 117°50'1010.0
2016-Jun-20 15:33N 33°03' W 117°42'1010.0
2016-Jun-20 14:34N 32°55' W 117°34'10 9.8
2016-Jun-20 13:33N 32°48' W 117°26'10 9.5
2016-Jun-20 12:33N 32°41' W 117°18'5 4.9
2016-Jun-20 11:33N 32°43' W 117°13'1 1.1
2016-Jun-20 10:33N 32°44' W 117°12'0 0.0
2016-Jun-20 09:33N 32°44' W 117°12'0 0.0
2016-Jun-20 08:33N 32°44' W 117°12'0 0.0
2016-Jun-20 07:32N 32°44' W 117°12'0 0.0
2016-Jun-20 06:33N 32°44' W 117°12'0 0.0
2016-Jun-20 05:33N 32°44' W 117°12'0 0.0
2016-Jun-20 04:32N 32°44' W 117°12'0 0.0
2016-Jun-20 03:33N 32°44' W 117°12'0 0.0
2016-Jun-20 02:33N 32°44' W 117°12'0 0.0
2016-Jun-20 01:33N 32°44' W 117°12'0 0.0
2016-Jun-20 00:17N 32°44' W 117°12'0 0.0
2016-Jun-19 23:32N 32°44' W 117°12'0 0.0
2016-Jun-19 22:29N 32°44' W 117°12'0 0.0
2016-Jun-19 21:32N 32°44' W 117°12'0 0.0
2016-Jun-19 20:29N 32°44' W 117°12'0 0.0
2016-Jun-19 18:23N 32°44' W 117°12'0 0.0
2016-Jun-19 17:26N 32°44' W 117°12'0 0.0
2016-Jun-19 16:26N 32°44' W 117°12'0 0.0
2016-Jun-19 15:32N 32°44' W 117°12'0 0.0
2016-Jun-19 14:32N 32°44' W 117°12'0 0.0
2016-Jun-19 13:32N 32°44' W 117°12'0 0.0
2016-Jun-19 12:32N 32°44' W 117°12'0 0.0
2016-Jun-19 11:32N 32°44' W 117°12'0 0.0
2016-Jun-19 10:32N 32°44' W 117°12'0 0.0
2016-Jun-19 09:32N 32°44' W 117°12'0 0.0
2016-Jun-19 08:32N 32°44' W 117°12'0 0.0
2016-Jun-19 07:32N 32°44' W 117°12'0 0.0
2016-Jun-19 06:32N 32°44' W 117°12'0 0.0
2016-Jun-19 05:32N 32°44' W 117°12'0 0.0
2016-Jun-19 04:32N 32°44' W 117°12'0 0.0
2016-Jun-19 03:26N 32°44' W 117°12'0 0.0
2016-Jun-19 01:26N 32°44' W 117°12'0 0.0
2016-Jun-19 00:32N 32°44' W 117°12'0 0.0
2016-Jun-18 23:32N 32°44' W 117°12'0 0.0
2016-Jun-18 22:29N 32°44' W 117°12'0 0.0
2016-Jun-18 21:20N 32°44' W 117°12'0 0.0
2016-Jun-18 20:32N 32°44' W 117°12'0 0.0
2016-Jun-18 19:26N 32°44' W 117°12'0 0.0
2016-Jun-18 18:32N 32°44' W 117°12'0 0.0
2016-Jun-18 17:32N 32°44' W 117°12'0 0.0
2016-Jun-18 16:32N 32°44' W 117°12'0 0.0
2016-Jun-18 15:32N 32°44' W 117°12'0 0.0
2016-Jun-18 14:32N 32°44' W 117°12'0 0.0
2016-Jun-18 13:32N 32°44' W 117°12'0 0.0
2016-Jun-18 12:32N 32°44' W 117°12'0 0.0
2016-Jun-18 11:32N 32°44' W 117°12'0 0.0
2016-Jun-18 06:23N 32°44' W 117°12'0 0.0
2016-Jun-18 05:32N 32°44' W 117°12'0 0.0
2016-Jun-18 04:26N 32°44' W 117°12'0 0.0
2016-Jun-17 22:20N 32°44' W 117°12'0 0.0
2016-Jun-17 21:32N 32°44' W 117°12'0 0.0
2016-Jun-17 20:29N 32°44' W 117°12'0 0.0
2016-Jun-17 19:32N 32°44' W 117°12'0 0.0
2016-Jun-17 18:32N 32°44' W 117°12'0 0.0
2016-Jun-17 17:32N 32°44' W 117°12'0 0.0
2016-Jun-17 16:32N 32°44' W 117°12'0 0.0
2016-Jun-17 15:32N 32°44' W 117°12'0 0.0
2016-Jun-17 14:32N 32°44' W 117°12'0 0.0
2016-Jun-17 13:32N 32°44' W 117°12'0 0.0
2016-Jun-17 12:32N 32°44' W 117°12'0 0.0
2016-Jun-17 11:32N 32°44' W 117°12'0 0.0
2016-Jun-17 10:29N 32°44' W 117°12'0 0.0
2016-Jun-17 09:32N 32°44' W 117°12'0 0.0
2016-Jun-17 08:32N 32°44' W 117°12'0 0.0
2016-Jun-17 07:32N 32°44' W 117°12'0 0.0
2016-Jun-17 06:32N 32°44' W 117°12'0 0.0
2016-Jun-17 05:32N 32°44' W 117°12'0 0.0
2016-Jun-17 04:29N 32°44' W 117°12'0 0.0
2016-Jun-17 03:26N 32°44' W 117°12'0 0.0
2016-Jun-17 02:32N 32°44' W 117°12'0 0.0
2016-Jun-17 01:32N 32°44' W 117°12'0 0.0
2016-Jun-17 00:29N 32°44' W 117°12'0 0.0
2016-Jun-16 23:32N 32°44' W 117°12'0 0.0
2016-Jun-16 22:32N 32°44' W 117°12'0 0.0
2016-Jun-16 21:32N 32°44' W 117°12'0 0.0
2016-Jun-16 20:32N 32°44' W 117°12'0 0.0
2016-Jun-16 19:32N 32°44' W 117°12'0 0.0
2016-Jun-16 18:32N 32°44' W 117°12'0 0.0
2016-Jun-16 17:32N 32°44' W 117°12'0 0.0
2016-Jun-16 16:34N 32°44' W 117°12'0 0.0
2016-Jun-16 15:33N 32°44' W 117°12'0 0.0
2016-Jun-16 14:33N 32°44' W 117°12'0 0.0
2016-Jun-16 13:33N 32°44' W 117°12'0 0.0
2016-Jun-16 12:33N 32°44' W 117°12'0 0.0
2016-Jun-16 11:34N 32°44' W 117°12'0 0.0
2016-Jun-16 10:32N 32°44' W 117°12'0 0.0
2016-Jun-16 09:33N 32°44' W 117°12'0 0.0
2016-Jun-16 08:33N 32°44' W 117°12'0 0.0
2016-Jun-16 07:33N 32°44' W 117°12'0 0.0
2016-Jun-16 06:34N 32°44' W 117°12'0 0.0
2016-Jun-16 05:33N 32°44' W 117°12'0 0.0
2016-Jun-16 04:33N 32°44' W 117°12'0 0.0
2016-Jun-16 03:33N 32°44' W 117°12'0 0.0
2016-Jun-16 02:34N 32°44' W 117°12'0 0.0
2016-Jun-16 01:33N 32°44' W 117°12'0 0.0
2016-Jun-16 00:33N 32°44' W 117°12'0 0.0
2016-Jun-15 23:33N 32°44' W 117°12'0 0.0
2016-Jun-15 22:33N 32°44' W 117°12'0 0.0
2016-Jun-15 21:33N 32°44' W 117°12'0 0.0
2016-Jun-15 20:34N 32°44' W 117°12'0 0.0
2016-Jun-15 19:33N 32°44' W 117°12'0 0.0
2016-Jun-15 18:33N 32°44' W 117°12'0 0.0
2016-Jun-15 17:34N 32°44' W 117°12'0 0.0
2016-Jun-15 16:33N 32°44' W 117°12'0 0.0
2016-Jun-15 15:34N 32°44' W 117°12'0 0.0
2016-Jun-15 14:33N 32°44' W 117°12'0 0.0
2016-Jun-15 13:33N 32°44' W 117°12'0 0.0
2016-Jun-15 12:33N 32°44' W 117°12'0 0.0
2016-Jun-15 11:33N 32°44' W 117°12'0 0.0
2016-Jun-15 10:34N 32°44' W 117°12'0 0.0
2016-Jun-15 09:34N 32°44' W 117°12'0 0.0
2016-Jun-15 08:33N 32°44' W 117°12'0 0.0
2016-Jun-15 07:33N 32°44' W 117°12'0 0.0
2016-Jun-15 06:34N 32°44' W 117°12'0 0.0
2016-Jun-15 05:33N 32°44' W 117°12'0 0.0
2016-Jun-15 04:33N 32°44' W 117°12'0 0.0
2016-Jun-15 03:34N 32°44' W 117°12'0 0.0
2016-Jun-15 02:33N 32°44' W 117°12'0 0.0
2016-Jun-15 01:33N 32°44' W 117°12'0 0.0
2016-Jun-15 00:33N 32°44' W 117°12'0 0.0
2016-Jun-14 23:34N 32°44' W 117°12'0 0.1
2016-Jun-14 22:33N 32°44' W 117°12'6 5.8
2016-Jun-14 21:32N 32°39' W 117°16'1010.0
2016-Jun-14 20:33N 32°46' W 117°24'1010.1
2016-Jun-14 19:34N 32°54' W 117°32'1010.2
2016-Jun-14 18:34N 33°01' W 117°40'1010.2
2016-Jun-14 17:34N 33°09' W 117°48'1010.2
2016-Jun-14 16:33N 33°16' W 117°56'1010.1
2016-Jun-14 15:33N 33°24' W 118°04'2010.0
2016-Jun-14 13:31N 33°39' W 118°21'14 9.6
2016-Jun-14 12:04N 33°52' W 118°28'510.0
2016-Jun-14 11:33N 33°57' W 118°27'2 2.1
2016-Jun-14 10:33N 33°59' W 118°27'0 0.0
2016-Jun-14 09:32N 33°59' W 118°27'0 0.0
2016-Jun-14 08:32N 33°59' W 118°27'0 0.0
2016-Jun-14 07:33N 33°59' W 118°27'  

Dump ship's entire track history